Angelina County Airport
KLFK : now visible

Airfield :











YOU CAN JOIN US ON...

 
LOGIN :

Register | Disclaimer

   EN    FR    IT 

 









Legend :    VFR   Marginal VFR   IFR   Intensive IFR   Very Intensive IFR
Visi :
Ceiling :
>= 8 km
>= 3000ft
5 to 8 km
1000 to 3000 ft
1500m to 5 km
500 to 1000 ft
800 to 1500m
200 to 500 ft
< 800m
< 200 ft
Symbols :   Thunderstorms  Fog  Heavy snow  Heavy precipitations  Wind > 20 kt






- Airport Elevation : 296 ft


KLFK - Angelina County

CURRENT METAR :
  • 190953Z AUTO 00000KT 10SM CLR 22/21 A2994 RMK AO2 SLP133 T02220211

EXPIRED METARs :
  • 190915Z AUTO 00000KT 3SM BR CLR 22/21 A2994 RMK AO2 T02170206
  • 190900Z AUTO 00000KT 1 3/4SM BR CLR 22/21 A2993 RMK AO2 T02170211

TAF KLFK
Valid from the 19 at 06:00 until the 20 at 06:00 UTC


190520Z 1906/2006 12006KT P6SM SCT019 SCT028 BKN035
FM191000 00000KT 3SM BR BKN004
FM191400 11003KT P6SM VCSH OVC008
FM191600 12004KT P6SM VCTS OVC015CB
FM191800 12005KT P6SM VCTS BKN035CB
KZHU FIR / North America



MET'MAP, your aeronautical weather chart ! - Copyright ORBIFLY December 2007 - Disclaimer

ORBIFLY MET'MAP TEAM :

Programming & Development : Alexandra Zaïnal
Concept & original design : Baudouin d'Aumeries
Assistance for programming : Marc-Olivier Méhu
Technical & hardware support : Manuel Goepfert

Contact : metmap@orbifly.com




SOURCES & CREDITS :

   NOAA       Earth
Advisory